Time;durP1;ratioP1;P1;durP2;ratioP2;P2;SDS_P1;SDS_P2;PMS_P1;PMS_P2;Temp;Humidity;BMP_temperature;BMP_pressure;BME280_temperature;BME280_humidity;BME280_pressure;Samples;Min_cycle;Max_cycle;Signal;HPM_P1;HPM_P2
2021/01/13 00:01:42;;;;;;;21.80;20.40;;;2.20;1.00;;;;;;5017983;28;20643;-69
2021/01/13 00:04:09;;;;;;;21.87;20.97;;;2.20;1.00;;;;;;5017212;28;20649;-69
2021/01/13 00:06:34;;;;;;;22.85;21.38;;;2.20;1.00;;;;;;5016970;28;20202;-69
2021/01/13 00:09:00;;;;;;;21.07;19.80;;;2.20;1.00;;;;;;5017289;28;20239;-69
2021/01/13 00:11:26;;;;;;;23.33;21.50;;;2.20;1.00;;;;;;5017583;28;20175;-69
2021/01/13 00:13:51;;;;;;;20.97;20.27;;;2.10;1.00;;;;;;5017679;28;20402;-69
2021/01/13 00:16:17;;;;;;;23.70;22.13;;;2.10;1.00;;;;;;5017125;28;20497;-69
2021/01/13 00:18:43;;;;;;;26.60;24.67;;;2.10;1.00;;;;;;5017339;28;20194;-69
2021/01/13 00:21:13;;;;;;;30.07;28.13;;;2.10;1.00;;;;;;5016845;28;20293;-69
2021/01/13 00:23:42;;;;;;;19.63;18.10;;;2.10;1.00;;;;;;5017231;28;20553;-70
2021/01/13 00:26:08;;;;;;;23.90;19.85;;;2.10;1.00;;;;;;5016780;28;20170;-69
2021/01/13 00:28:33;;;;;;;32.63;30.87;;;2.10;1.00;;;;;;5016917;28;20195;-69
2021/01/13 00:30:59;;;;;;;27.50;26.53;;;2.10;1.00;;;;;;5016577;28;20452;-69
2021/01/13 00:33:25;;;;;;;25.33;23.93;;;2.10;1.00;;;;;;5015665;28;20297;-69
2021/01/13 00:35:50;;;;;;;20.10;18.63;;;2.20;1.00;;;;;;5016537;28;20246;-69
2021/01/13 00:38:16;;;;;;;19.40;17.90;;;2.20;1.00;;;;;;5016741;28;20241;-70
2021/01/13 00:40:41;;;;;;;18.43;17.47;;;2.20;1.00;;;;;;5016593;28;20528;-70
2021/01/13 00:43:07;;;;;;;19.37;18.60;;;2.30;1.00;;;;;;5016622;28;20175;-70
2021/01/13 00:45:33;;;;;;;22.17;20.83;;;2.40;1.00;;;;;;5017079;28;20172;-70
2021/01/13 00:48:00;;;;;;;18.53;17.70;;;2.40;1.00;;;;;;5016137;28;20185;-70
2021/01/13 00:50:26;;;;;;;22.23;19.98;;;2.40;1.00;;;;;;5016658;28;20669;-69
2021/01/13 00:52:52;;;;;;;22.10;20.40;;;2.40;1.00;;;;;;5016668;28;20181;-70
2021/01/13 00:55:17;;;;;;;19.73;18.83;;;2.30;1.00;;;;;;5016383;28;20175;-70
2021/01/13 00:57:52;;;;;;;22.93;21.23;;;2.30;1.00;;;;;;5015026;28;20585;-70
2021/01/13 01:00:19;;;;;;;18.40;17.45;;;2.20;1.00;;;;;;5016715;28;20421;-69
2021/01/13 01:02:44;;;;;;;25.73;24.25;;;2.20;1.00;;;;;;5016446;28;20179;-70
2021/01/13 01:05:10;;;;;;;23.40;21.83;;;2.20;1.00;;;;;;5016327;28;20314;-69
2021/01/13 01:07:43;;;;;;;22.87;21.50;;;2.20;1.00;;;;;;5015794;28;20187;-69
2021/01/13 01:10:13;;;;;;;20.77;19.50;;;2.20;1.00;;;;;;5015234;28;20462;-69
2021/01/13 01:12:39;;;;;;;17.17;15.85;;;2.20;1.00;;;;;;5016482;28;20198;-70
2021/01/13 01:15:05;;;;;;;24.13;22.33;;;2.10;1.00;;;;;;5015963;28;20210;-69
2021/01/13 01:17:31;;;;;;;22.63;20.65;;;2.20;1.00;;;;;;5014675;28;20176;-69
2021/01/13 01:19:56;;;;;;;26.40;24.50;;;2.20;1.00;;;;;;5016122;28;20206;-69
2021/01/13 01:22:22;;;;;;;30.80;29.30;;;2.20;1.00;;;;;;5016130;28;20177;-69
2021/01/13 01:24:47;;;;;;;33.47;31.10;;;2.20;1.00;;;;;;5015795;28;20171;-69
2021/01/13 01:27:13;;;;;;;31.30;29.57;;;2.20;1.00;;;;;;5015670;28;20207;-69
2021/01/13 01:29:38;;;;;;;29.30;28.10;;;2.20;1.00;;;;;;5015654;28;20211;-69
2021/01/13 01:32:04;;;;;;;22.90;21.50;;;2.20;1.00;;;;;;5014443;28;20190;-69
2021/01/13 01:34:30;;;;;;;23.70;22.60;;;2.20;1.00;;;;;;5015638;28;20172;-69
2021/01/13 01:36:55;;;;;;;23.43;21.90;;;2.30;1.00;;;;;;5015786;28;20250;-69
2021/01/13 01:39:22;;;;;;;23.30;21.57;;;2.30;1.00;;;;;;5015437;28;20186;-70
2021/01/13 01:41:47;;;;;;;23.60;21.98;;;2.30;1.00;;;;;;5015334;28;20178;-70
2021/01/13 01:44:13;;;;;;;22.33;21.00;;;2.20;1.00;;;;;;5015926;28;20175;-70
2021/01/13 01:46:42;;;;;;;23.67;22.37;;;2.20;1.00;;;;;;5015294;28;20179;-70
2021/01/13 01:49:11;;;;;;;21.90;20.90;;;2.20;1.00;;;;;;5015428;28;20253;-69
2021/01/13 01:51:56;;;;;;;21.75;20.23;;;2.20;1.00;;;;;;5015854;28;20171;-69
2021/01/13 01:54:25;;;;;;;21.30;19.08;;;2.20;1.00;;;;;;5015657;28;20553;-70
2021/01/13 01:56:55;;;;;;;21.20;20.05;;;2.20;1.00;;;;;;5015200;28;20167;-70
2021/01/13 01:59:40;;;;;;;19.25;18.20;;;2.20;1.00;;;;;;5015238;28;20191;-70
2021/01/13 02:02:09;;;;;;;20.00;18.80;;;2.20;1.00;;;;;;5015207;28;20176;-69
2021/01/13 02:04:41;;;;;;;23.25;21.73;;;2.30;1.00;;;;;;5015199;28;20171;-69
2021/01/13 02:07:09;;;;;;;20.42;19.63;;;2.30;1.00;;;;;;5014929;28;20215;-69
2021/01/13 02:09:37;;;;;;;27.20;26.17;;;2.30;1.00;;;;;;5015201;28;20199;-69
2021/01/13 02:12:13;;;;;;;18.35;17.55;;;2.30;1.00;;;;;;5015169;28;20177;-69
2021/01/13 02:14:41;;;;;;;22.45;20.73;;;2.40;1.00;;;;;;5015146;28;20242;-70
2021/01/13 02:17:09;;;;;;;20.70;19.80;;;2.30;1.00;;;;;;5014647;28;20310;-69
2021/01/13 02:20:07;;;;;;;17.25;16.55;;;2.30;1.00;;;;;;5014664;28;20687;-69
2021/01/13 02:22:54;;;;;;;21.52;20.15;;;2.30;1.00;;;;;;5014854;28;20242;-70
2021/01/13 02:26:12;;;;;;;19.98;18.65;;;2.30;1.00;;;;;;5014814;28;20242;-69
2021/01/13 02:29:12;;;;;;;34.90;32.90;;;2.30;1.00;;;;;;5014280;28;20206;-69
2021/01/13 02:31:51;;;;;;;25.25;24.02;;;2.40;1.00;;;;;;5006114;28;20206;-70
2021/01/13 02:34:24;;;;;;;23.30;21.98;;;2.40;1.00;;;;;;5014511;28;20178;-70
2021/01/13 02:37:40;;;;;;;21.10;20.00;;;2.40;1.00;;;;;;5013288;28;20262;-70
2021/01/13 02:40:20;;;;;;;20.70;19.67;;;2.50;1.00;;;;;;5014840;28;20214;-69
2021/01/13 02:42:54;;;;;;;22.55;20.98;;;2.60;1.00;;;;;;5014470;28;20203;-70
2021/01/13 02:45:23;;;;;;;23.92;22.35;;;2.60;1.00;;;;;;5014602;28;20175;-70
2021/01/13 02:48:03;;;;;;;21.90;20.55;;;2.50;1.00;;;;;;5014487;28;20652;-69
2021/01/13 02:50:35;;;;;;;23.77;22.15;;;2.50;1.00;;;;;;5014604;28;20193;-69
2021/01/13 02:53:19;;;;;;;18.58;17.77;;;2.40;1.00;;;;;;5014348;28;20164;-69
2021/01/13 02:55:47;;;;;;;21.17;19.95;;;2.40;1.00;;;;;;5014146;28;20171;-70
2021/01/13 02:58:33;;;;;;;19.35;18.27;;;2.30;1.00;;;;;;5014488;28;20210;-69
2021/01/13 03:01:00;;;;;;;19.30;18.00;;;2.30;1.00;;;;;;5014450;28;20155;-70
2021/01/13 03:03:27;;;;;;;19.77;18.15;;;2.20;1.00;;;;;;5013987;28;20179;-70
2021/01/13 03:05:53;;;;;;;22.80;21.13;;;2.20;1.00;;;;;;5013895;28;20549;-70
2021/01/13 03:08:38;;;;;;;21.17;20.20;;;2.20;1.00;;;;;;5014145;28;20214;-70
2021/01/13 03:11:06;;;;;;;24.63;23.05;;;2.20;1.00;;;;;;5014150;28;20187;-69
2021/01/13 03:13:42;;;;;;;25.30;23.67;;;2.20;1.00;;;;;;5013953;28;20623;-69
2021/01/13 03:16:07;;;;;;;20.05;19.27;;;2.20;1.00;;;;;;5013932;28;20613;-70
2021/01/13 03:18:56;;;;;;;27.17;26.03;;;2.20;1.00;;;;;;5014100;28;20206;-70
2021/01/13 03:21:26;;;;;;;26.00;24.83;;;2.20;1.00;;;;;;5014410;28;20429;-69
2021/01/13 03:24:06;;;;;;;25.33;24.00;;;2.20;1.00;;;;;;5013780;28;20204;-69
2021/01/13 03:26:37;;;;;;;25.85;24.50;;;2.20;1.00;;;;;;5012457;28;20182;-70
2021/01/13 03:29:04;;;;;;;30.08;28.75;;;2.20;1.00;;;;;;5013924;28;20206;-69
2021/01/13 03:31:34;;;;;;;29.27;27.70;;;2.20;1.00;;;;;;5014081;28;20186;-70
2021/01/13 03:34:26;;;;;;;29.58;28.38;;;2.20;1.00;;;;;;5014321;28;20244;-70
2021/01/13 03:37:01;;;;;;;25.92;24.52;;;2.20;1.00;;;;;;5012371;28;20683;-69
2021/01/13 03:39:38;;;;;;;32.95;31.25;;;2.20;1.00;;;;;;5013945;28;20195;-69
2021/01/13 03:42:12;;;;;;;27.92;26.70;;;2.30;1.00;;;;;;5013999;28;20236;-70
2021/01/13 03:44:42;;;;;;;22.65;21.30;;;2.30;1.00;;;;;;5014246;28;20170;-69
2021/01/13 03:47:17;;;;;;;27.33;26.00;;;2.30;1.00;;;;;;5013087;28;20649;-69
2021/01/13 03:49:58;;;;;;;25.77;24.58;;;2.40;1.00;;;;;;5013683;28;20230;-69
2021/01/13 03:52:28;;;;;;;21.08;19.95;;;2.50;1.00;;;;;;5013941;28;20209;-69
2021/01/13 03:54:55;;;;;;;23.42;21.55;;;2.50;1.00;;;;;;5014152;28;20174;-69
2021/01/13 03:58:09;;;;;;;31.15;29.60;;;2.60;1.00;;;;;;5013532;28;20187;-70
2021/01/13 04:01:13;;;;;;;25.00;23.17;;;2.60;1.00;;;;;;4992182;28;20212;-69
2021/01/13 04:03:55;;;;;;;24.05;22.98;;;2.60;1.00;;;;;;4990926;28;20207;-70
2021/01/13 04:06:20;;;;;;;26.63;25.42;;;2.70;1.00;;;;;;5012250;28;20179;-70
2021/01/13 04:08:47;;;;;;;27.67;26.20;;;2.70;1.00;;;;;;5013439;28;20596;-70
2021/01/13 04:11:21;;;;;;;23.45;22.48;;;2.70;1.00;;;;;;5014053;28;20432;-70
2021/01/13 04:13:52;;;;;;;22.17;21.27;;;2.70;1.00;;;;;;5013896;28;20634;-70
2021/01/13 04:16:20;;;;;;;21.83;20.60;;;2.70;1.00;;;;;;5013664;28;20230;-70
2021/01/13 04:18:48;;;;;;;21.38;20.27;;;2.70;1.00;;;;;;5013363;28;20203;-70
2021/01/13 04:21:19;;;;;;;18.73;17.20;;;2.70;1.00;;;;;;5013395;28;20218;-70
2021/01/13 04:23:46;;;;;;;17.90;16.60;;;2.70;1.00;;;;;;5015148;28;20541;-70
2021/01/13 04:26:13;;;;;;;27.98;26.38;;;2.80;1.00;;;;;;5017224;28;20175;-70
2021/01/13 04:28:40;;;;;;;25.05;23.63;;;2.80;1.00;;;;;;5017489;28;20657;-70
2021/01/13 04:31:06;;;;;;;21.58;20.33;;;2.70;1.00;;;;;;5016727;28;20195;-70
2021/01/13 04:33:33;;;;;;;25.08;23.75;;;2.80;1.00;;;;;;5017453;28;20178;-70
2021/01/13 04:35:59;;;;;;;28.08;26.55;;;2.80;1.00;;;;;;5017067;28;20175;-70
2021/01/13 04:38:25;;;;;;;24.93;23.60;;;2.80;1.00;;;;;;5016875;28;20761;-70
2021/01/13 04:41:07;;;;;;;18.52;17.38;;;2.80;1.00;;;;;;5017353;28;20418;-70
2021/01/13 04:43:57;;;;;;;18.80;17.55;;;2.80;1.00;;;;;;5015429;28;20168;-70
2021/01/13 04:46:35;;;;;;;20.60;19.48;;;2.80;1.00;;;;;;5016491;28;20202;-70
2021/01/13 04:49:05;;;;;;;21.70;20.38;;;2.70;1.00;;;;;;5016999;28;20187;-70
2021/01/13 04:51:39;;;;;;;27.65;25.38;;;2.60;1.00;;;;;;5017060;28;20525;-70
2021/01/13 04:54:10;;;;;;;22.58;21.10;;;2.60;1.00;;;;;;5016738;28;20202;-70
2021/01/13 04:57:07;;;;;;;22.98;21.65;;;2.60;1.00;;;;;;5016563;28;20171;-70
2021/01/13 05:00:05;;;;;;;23.88;22.60;;;2.50;1.00;;;;;;5016209;28;20194;-70
2021/01/13 05:02:45;;;;;;;27.90;26.42;;;2.50;1.00;;;;;;5016300;28;20246;-70
2021/01/13 05:05:20;;;;;;;26.65;24.92;;;2.50;1.00;;;;;;5016330;28;20610;-70
2021/01/13 05:08:20;;;;;;;26.13;24.77;;;2.50;1.00;;;;;;5016119;28;20194;-70
2021/01/13 05:10:50;;;;;;;25.80;24.05;;;2.50;1.00;;;;;;5014709;28;20219;-70
2021/01/13 05:13:17;;;;;;;28.63;27.40;;;2.40;1.00;;;;;;5016403;28;20180;-70
2021/01/13 05:15:56;;;;;;;32.63;30.13;;;2.40;1.00;;;;;;5016167;28;20181;-70
2021/01/13 05:18:55;;;;;;;34.53;31.83;;;2.40;1.00;;;;;;5016442;28;20276;-70
2021/01/13 05:21:25;;;;;;;22.25;21.05;;;2.30;1.00;;;;;;5015974;28;20176;-70
2021/01/13 05:23:54;;;;;;;20.13;18.85;;;2.40;1.00;;;;;;5015767;28;20233;-70
2021/01/13 05:26:25;;;;;;;25.27;22.75;;;2.30;1.00;;;;;;5015716;28;20167;-70
2021/01/13 05:29:22;;;;;;;33.35;31.35;;;2.30;1.00;;;;;;5015774;28;20203;-70
2021/01/13 05:31:50;;;;;;;30.77;29.02;;;2.40;1.00;;;;;;5015727;28;20228;-70
2021/01/13 05:34:18;;;;;;;31.25;29.40;;;2.30;1.00;;;;;;5015349;28;20226;-69
2021/01/13 05:37:11;;;;;;;26.38;24.83;;;2.40;1.00;;;;;;5013533;28;20182;-70
2021/01/13 05:39:38;;;;;;;24.38;23.17;;;2.40;1.00;;;;;;5015474;28;20191;-69
2021/01/13 05:42:05;;;;;;;26.63;25.20;;;2.40;1.00;;;;;;5015634;28;20183;-70
2021/01/13 05:44:30;;;;;;;35.75;33.30;;;2.40;1.00;;;;;;5015659;28;20175;-70
2021/01/13 05:47:05;;;;;;;28.57;26.90;;;2.50;1.00;;;;;;5015083;28;20202;-70
2021/01/13 05:49:32;;;;;;;27.77;26.17;;;2.50;1.00;;;;;;5015133;28;20258;-70
2021/01/13 05:52:09;;;;;;;33.95;31.35;;;2.50;1.00;;;;;;5015847;28;20172;-70
2021/01/13 05:54:37;;;;;;;27.27;25.50;;;2.50;1.00;;;;;;5015336;28;20171;-69
2021/01/13 05:57:04;;;;;;;23.35;22.17;;;2.50;1.00;;;;;;5014064;28;20226;-69
2021/01/13 05:59:31;;;;;;;21.45;20.13;;;2.60;1.00;;;;;;5014330;28;20206;-70
2021/01/13 06:02:02;;;;;;;24.98;23.65;;;2.50;1.00;;;;;;5015052;28;20641;-70
2021/01/13 06:04:28;;;;;;;25.60;24.30;;;2.50;1.00;;;;;;5015646;28;20626;-70
2021/01/13 06:06:57;;;;;;;26.43;24.77;;;2.50;1.00;;;;;;5013697;28;20246;-70
2021/01/13 06:09:23;;;;;;;28.95;27.75;;;2.50;1.00;;;;;;5013350;28;20469;-70
2021/01/13 06:11:52;;;;;;;24.17;22.95;;;2.40;1.00;;;;;;5015273;28;20168;-70
2021/01/13 06:14:26;;;;;;;21.33;19.85;;;2.50;1.00;;;;;;5015303;28;20258;-70
2021/01/13 06:16:53;;;;;;;20.92;19.50;;;2.50;1.00;;;;;;5013588;28;20178;-70
2021/01/13 06:19:20;;;;;;;19.98;18.60;;;2.40;1.00;;;;;;5014886;28;20209;-70
2021/01/13 06:21:47;;;;;;;22.27;20.60;;;2.40;1.00;;;;;;5014950;28;20286;-70
2021/01/13 06:24:14;;;;;;;27.27;25.88;;;2.40;1.00;;;;;;5015000;28;20183;-70
2021/01/13 06:26:52;;;;;;;24.20;22.55;;;2.50;1.00;;;;;;5014564;28;20210;-70
2021/01/13 06:29:23;;;;;;;23.67;22.33;;;2.50;1.00;;;;;;5014619;28;20211;-70
2021/01/13 06:31:56;;;;;;;25.92;24.35;;;2.50;1.00;;;;;;5014638;28;20178;-69
2021/01/13 06:34:36;;;;;;;22.85;21.60;;;2.50;1.00;;;;;;5014989;28;20618;-69
2021/01/13 06:37:31;;;;;;;20.55;19.55;;;2.50;1.00;;;;;;5014979;28;20225;-69
2021/01/13 06:39:58;;;;;;;23.48;22.35;;;2.50;1.00;;;;;;5014287;28;20596;-70
2021/01/13 06:42:30;;;;;;;25.10;23.60;;;2.50;1.00;;;;;;5014440;28;20190;-70
2021/01/13 06:44:56;;;;;;;24.85;23.85;;;2.50;1.00;;;;;;5014484;28;20250;-69
2021/01/13 06:47:22;;;;;;;30.23;28.27;;;2.50;1.00;;;;;;5014263;28;20286;-70
2021/01/13 06:49:49;;;;;;;27.98;26.00;;;2.60;1.00;;;;;;5011363;28;20457;-69
2021/01/13 06:52:29;;;;;;;21.98;20.75;;;2.60;1.00;;;;;;5014649;28;20172;-69
2021/01/13 06:54:59;;;;;;;30.45;28.48;;;2.60;1.00;;;;;;5014451;28;20151;-69
2021/01/13 06:57:30;;;;;;;30.83;29.05;;;2.60;1.00;;;;;;5014298;28;20637;-69
2021/01/13 06:59:59;;;;;;;38.70;35.67;;;2.60;1.00;;;;;;5014409;28;20191;-70
2021/01/13 07:02:35;;;;;;;32.35;31.08;;;2.60;1.00;;;;;;5014603;28;20183;-70
2021/01/13 07:05:01;;;;;;;35.53;33.15;;;2.60;1.00;;;;;;5014174;28;20254;-69
2021/01/13 07:07:29;;;;;;;32.80;30.67;;;2.60;1.00;;;;;;5013707;28;20998;-71
2021/01/13 07:09:54;;;;;;;29.55;28.00;;;2.60;1.00;;;;;;5014419;28;20584;-70
2021/01/13 07:12:24;;;;;;;35.20;33.77;;;2.60;1.00;;;;;;5012682;28;20179;-69
2021/01/13 07:14:52;;;;;;;31.88;28.95;;;2.60;1.00;;;;;;5014400;28;20167;-69
2021/01/13 07:17:22;;;;;;;32.92;30.70;;;2.60;1.00;;;;;;5012445;28;20178;-69
2021/01/13 07:19:50;;;;;;;32.85;31.27;;;2.70;1.00;;;;;;5014014;28;20195;-69
2021/01/13 07:22:18;;;;;;;33.30;31.77;;;2.70;1.00;;;;;;5014089;28;20210;-69
2021/01/13 07:24:45;;;;;;;35.60;33.60;;;2.70;1.00;;;;;;5012893;28;20175;-69
2021/01/13 07:27:12;;;;;;;28.98;27.42;;;2.70;1.00;;;;;;5013591;28;20645;-69
2021/01/13 07:29:39;;;;;;;28.85;27.55;;;2.70;1.00;;;;;;5013571;28;20241;-69
2021/01/13 07:32:05;;;;;;;32.75;31.05;;;2.70;1.00;;;;;;5013425;28;20187;-69
2021/01/13 07:34:34;;;;;;;30.27;28.80;;;2.70;1.00;;;;;;5012611;28;20175;-69
2021/01/13 07:37:07;;;;;;;33.72;32.33;;;2.70;1.00;;;;;;5013885;28;20618;-69
2021/01/13 07:39:48;;;;;;;30.63;29.10;;;2.70;1.00;;;;;;5012984;28;20195;-69
2021/01/13 07:42:37;;;;;;;25.60;24.42;;;2.70;1.00;;;;;;5014411;28;20219;-68
2021/01/13 07:45:16;;;;;;;25.92;24.33;;;2.70;1.00;;;;;;5012419;28;20696;-69
2021/01/13 07:48:10;;;;;;;24.77;22.27;;;2.70;1.00;;;;;;5013539;28;20242;-69
2021/01/13 07:50:40;;;;;;;22.67;21.17;;;2.70;1.00;;;;;;5013812;28;20641;-69
2021/01/13 07:53:10;;;;;;;24.10;23.02;;;2.70;1.00;;;;;;5013926;28;20217;-69
2021/01/13 07:55:42;;;;;;;23.40;21.90;;;2.70;1.00;;;;;;5013424;28;20172;-69
2021/01/13 07:58:19;;;;;;;22.67;21.52;;;2.70;1.00;;;;;;5013153;28;20256;-69
2021/01/13 08:01:10;;;;;;;23.85;22.55;;;2.70;1.00;;;;;;5018177;28;20159;-69
2021/01/13 08:04:13;;;;;;;26.00;24.63;;;2.70;1.00;;;;;;5017708;28;20254;-69
2021/01/13 08:06:47;;;;;;;26.67;24.88;;;2.70;1.00;;;;;;5016318;28;20182;-69
2021/01/13 08:09:18;;;;;;;21.52;20.52;;;2.70;1.00;;;;;;5016680;28;20206;-69
2021/01/13 08:12:10;;;;;;;18.80;17.70;;;2.70;1.00;;;;;;5017435;28;20169;-69
2021/01/13 08:14:51;;;;;;;25.60;24.15;;;2.70;1.00;;;;;;5017744;28;20602;-69
2021/01/13 08:17:53;;;;;;;26.73;25.30;;;2.70;1.00;;;;;;5016388;28;20558;-69
2021/01/13 08:20:54;;;;;;;24.02;22.65;;;2.80;1.00;;;;;;5017334;28;20289;-69
2021/01/13 08:23:26;;;;;;;22.85;20.83;;;2.80;1.00;;;;;;5017735;28;20171;-69
2021/01/13 08:26:02;;;;;;;21.73;20.83;;;2.80;1.00;;;;;;5017146;28;20179;-69
2021/01/13 08:28:44;;;;;;;21.13;19.63;;;2.90;1.00;;;;;;5015802;28;20628;-69
2021/01/13 08:31:11;;;;;;;24.13;22.85;;;2.90;1.00;;;;;;5017058;28;20234;-69
2021/01/13 08:33:38;;;;;;;22.45;21.25;;;3.00;1.00;;;;;;5017683;28;20163;-68
2021/01/13 08:36:12;;;;;;;24.52;23.33;;;3.10;1.00;;;;;;5016897;28;20202;-69
2021/01/13 08:38:38;;;;;;;20.25;19.23;;;3.10;1.00;;;;;;5016965;28;20207;-69
2021/01/13 08:41:20;;;;;;;22.38;21.23;;;3.10;1.00;;;;;;5017360;28;20171;-69
2021/01/13 08:44:02;;;;;;;21.77;20.88;;;3.20;1.00;;;;;;5016944;28;20544;-69
2021/01/13 08:46:39;;;;;;;16.35;15.23;;;3.10;1.00;;;;;;5017176;28;20175;-69
2021/01/13 08:49:06;;;;;;;17.90;16.85;;;3.10;1.00;;;;;;5016894;28;20249;-69
2021/01/13 08:51:32;;;;;;;19.52;18.55;;;3.20;1.00;;;;;;5016884;28;20218;-69
2021/01/13 08:54:21;;;;;;;23.38;21.52;;;3.20;1.00;;;;;;5016622;28;20182;-70
2021/01/13 08:56:55;;;;;;;17.92;16.88;;;3.20;1.00;;;;;;5016412;28;20213;-69
2021/01/13 08:59:36;;;;;;;33.20;30.17;;;3.20;1.00;;;;;;5015526;28;20198;-69
2021/01/13 09:02:05;;;;;;;27.30;26.10;;;3.20;1.00;;;;;;5015178;28;20638;-69
2021/01/13 09:04:56;;;;;;;21.30;19.80;;;3.40;1.00;;;;;;5016248;28;20175;-69
2021/01/13 09:07:30;;;;;;;21.17;19.80;;;3.40;1.00;;;;;;5016040;28;20182;-69
2021/01/13 09:10:07;;;;;;;21.42;20.13;;;3.30;1.00;;;;;;5015898;28;20298;-69
2021/01/13 09:12:46;;;;;;;20.50;19.27;;;3.40;1.00;;;;;;5016157;28;20580;-69
2021/01/13 09:15:37;;;;;;;21.27;20.02;;;3.40;1.00;;;;;;5016559;28;20171;-69
2021/01/13 09:18:03;;;;;;;17.45;16.08;;;3.40;1.00;;;;;;5015479;28;20179;-70
2021/01/13 09:20:31;;;;;;;18.60;17.67;;;3.40;1.00;;;;;;5016047;28;20174;-69
2021/01/13 09:23:02;;;;;;;18.13;16.88;;;3.50;1.00;;;;;;5016167;28;20263;-69
2021/01/13 09:25:29;;;;;;;18.75;17.15;;;3.50;1.00;;;;;;5015992;28;20163;-70
2021/01/13 09:28:00;;;;;;;19.75;18.63;;;3.60;1.00;;;;;;5016343;28;20193;-69
2021/01/13 09:30:28;;;;;;;17.65;16.38;;;3.60;1.00;;;;;;5016387;28;20233;-70
2021/01/13 09:32:56;;;;;;;17.77;16.65;;;3.70;1.00;;;;;;5015401;28;20171;-72
2021/01/13 09:35:30;;;;;;;19.17;17.75;;;3.70;1.00;;;;;;5016131;28;20203;-72
2021/01/13 09:37:59;;;;;;;21.25;20.05;;;3.70;1.00;;;;;;5014200;28;20199;-71
2021/01/13 09:40:50;;;;;;;20.45;18.48;;;3.80;1.00;;;;;;5015989;28;20552;-72
2021/01/13 09:43:36;;;;;;;20.08;18.80;;;3.80;1.00;;;;;;5014133;28;20692;-71
2021/01/13 09:46:06;;;;;;;18.17;17.30;;;3.80;1.00;;;;;;5015212;28;20183;-71
2021/01/13 09:48:35;;;;;;;21.50;19.90;;;3.80;1.00;;;;;;5015704;28;20191;-72
2021/01/13 09:51:10;;;;;;;20.40;18.75;;;3.80;1.00;;;;;;4997265;28;20241;-72
2021/01/13 09:53:50;;;;;;;20.65;19.40;;;3.70;1.00;;;;;;4995830;28;20680;-71
2021/01/13 09:56:16;;;;;;;17.70;16.90;;;3.70;1.00;;;;;;4994316;28;20191;-71
2021/01/13 09:58:44;;;;;;;20.65;19.42;;;3.60;1.00;;;;;;4995635;28;20226;-71
2021/01/13 10:01:16;;;;;;;22.23;20.63;;;3.60;1.00;;;;;;4995652;28;20310;-72
2021/01/13 10:03:44;;;;;;;17.25;16.45;;;3.60;1.00;;;;;;4995708;28;20163;-72
2021/01/13 10:06:20;;;;;;;18.25;17.33;;;3.60;1.00;;;;;;4993959;28;20180;-72
2021/01/13 10:08:49;;;;;;;19.83;18.40;;;3.60;1.00;;;;;;4995140;28;20207;-72
2021/01/13 10:11:16;;;;;;;18.92;17.92;;;3.60;1.00;;;;;;4995484;28;20298;-72
2021/01/13 10:13:44;;;;;;;22.58;20.75;;;3.60;1.00;;;;;;4995694;28;20240;-72
2021/01/13 10:16:11;;;;;;;20.00;18.70;;;3.60;1.00;;;;;;4997744;28;20515;-71
2021/01/13 10:18:55;;;;;;;17.80;16.75;;;3.60;1.00;;;;;;4995128;28;20192;-72
2021/01/13 10:21:22;;;;;;;50.40;45.38;;;3.70;1.00;;;;;;4999703;28;20196;-72
2021/01/13 10:23:48;;;;;;;23.02;18.95;;;3.70;1.00;;;;;;5009258;28;20171;-71
2021/01/13 10:26:15;;;;;;;23.33;21.30;;;3.80;1.00;;;;;;5014555;28;20266;-72
2021/01/13 10:28:41;;;;;;;21.30;19.25;;;3.90;1.00;;;;;;5014470;28;20661;-72
2021/01/13 10:31:09;;;;;;;18.10;16.50;;;4.00;1.00;;;;;;5046230;28;20204;-72
2021/01/13 10:33:55;;;;;;;21.73;20.40;;;4.10;1.00;;;;;;5046476;28;20175;-72
2021/01/13 10:36:30;;;;;;;18.92;18.05;;;4.10;1.00;;;;;;5014284;28;20250;-72
2021/01/13 10:39:00;;;;;;;19.00;17.45;;;4.10;1.00;;;;;;5014450;28;20210;-72
2021/01/13 10:41:35;;;;;;;22.42;21.30;;;4.10;1.00;;;;;;5015339;28;20182;-72
2021/01/13 10:44:29;;;;;;;23.38;21.67;;;4.10;1.00;;;;;;5014498;28;20181;-72
2021/01/13 10:47:21;;;;;;;25.42;23.80;;;4.10;1.00;;;;;;5012559;28;20265;-72
2021/01/13 10:49:53;;;;;;;23.20;21.13;;;4.20;1.00;;;;;;5013084;28;20211;-72
2021/01/13 10:52:21;;;;;;;18.17;17.23;;;4.20;1.00;;;;;;5014455;28;20175;-72
2021/01/13 10:54:54;;;;;;;18.20;16.75;;;4.30;1.00;;;;;;5014603;28;20168;-72
2021/01/13 10:57:32;;;;;;;16.85;15.40;;;4.30;1.00;;;;;;5014060;28;20160;-72
2021/01/13 11:00:10;;;;;;;20.00;18.23;;;4.30;1.00;;;;;;5014533;28;20321;-72
2021/01/13 11:02:37;;;;;;;18.23;16.95;;;4.40;1.00;;;;;;5014304;28;20491;-72
2021/01/13 11:05:03;;;;;;;22.45;20.95;;;4.40;1.00;;;;;;5014192;28;20204;-72
2021/01/13 11:07:40;;;;;;;20.75;18.73;;;4.40;1.00;;;;;;5013548;28;20193;-72
2021/01/13 11:10:10;;;;;;;21.92;20.08;;;4.40;1.00;;;;;;5014307;28;20205;-72
2021/01/13 11:12:36;;;;;;;22.42;20.95;;;4.50;1.00;;;;;;5014654;28;20186;-72
2021/01/13 11:15:05;;;;;;;21.75;20.60;;;4.50;1.00;;;;;;5013842;28;20693;-72
2021/01/13 11:17:32;;;;;;;19.08;17.67;;;4.60;1.00;;;;;;5013873;28;20589;-73
2021/01/13 11:20:00;;;;;;;26.73;25.10;;;4.60;1.00;;;;;;5013665;28;20285;-72
2021/01/13 11:22:44;;;;;;;21.45;19.90;;;4.60;1.00;;;;;;5006930;28;20183;-72
2021/01/13 11:25:17;;;;;;;23.63;22.13;;;4.60;1.00;;;;;;5000867;28;20242;-73
2021/01/13 11:27:44;;;;;;;18.38;17.17;;;4.70;1.00;;;;;;5002351;28;20219;-72
2021/01/13 11:30:13;;;;;;;20.98;19.98;;;4.70;1.00;;;;;;5009833;28;20210;-72
2021/01/13 11:32:40;;;;;;;27.00;25.52;;;4.70;1.00;;;;;;5010029;28;20175;-74
2021/01/13 11:35:06;;;;;;;23.42;22.25;;;4.70;1.00;;;;;;5011782;28;20178;-72
2021/01/13 11:37:32;;;;;;;23.80;21.63;;;4.70;1.00;;;;;;4998581;28;20180;-72
2021/01/13 11:40:08;;;;;;;20.97;19.50;;;4.80;1.00;;;;;;4998087;28;20195;-72
2021/01/13 11:42:57;;;;;;;21.58;20.48;;;4.90;1.00;;;;;;4998057;28;20199;-72
2021/01/13 11:45:48;;;;;;;17.75;16.75;;;4.90;1.00;;;;;;4996697;28;20183;-72
2021/01/13 11:48:20;;;;;;;19.13;18.23;;;4.90;1.00;;;;;;4998269;28;20246;-72
2021/01/13 11:50:52;;;;;;;21.27;20.17;;;4.90;1.00;;;;;;4998114;28;20204;-72
2021/01/13 11:53:22;;;;;;;22.10;20.65;;;4.90;1.00;;;;;;4996894;28;20626;-72
2021/01/13 11:55:48;;;;;;;25.42;23.30;;;4.90;1.00;;;;;;4997585;28;20242;-73
2021/01/13 11:58:16;;;;;;;24.53;23.00;;;5.00;1.00;;;;;;4997711;28;20650;-72
2021/01/13 12:00:42;;;;;;;27.65;26.05;;;5.00;1.00;;;;;;4998395;28;20940;-72
2021/01/13 12:03:17;;;;;;;21.30;19.23;;;5.00;1.00;;;;;;4997611;28;20188;-72
2021/01/13 12:05:45;;;;;;;21.13;20.00;;;5.00;1.00;;;;;;4997975;28;20398;-72
2021/01/13 12:08:18;;;;;;;15.93;14.77;;;5.10;1.00;;;;;;4997431;28;20673;-72
2021/01/13 12:10:47;;;;;;;20.23;15.40;;;5.20;1.00;;;;;;4997902;28;20188;-72
2021/01/13 12:13:20;;;;;;;22.20;20.33;;;5.20;1.00;;;;;;4998186;28;20172;-72
2021/01/13 12:15:57;;;;;;;17.13;15.10;;;5.20;1.00;;;;;;4997313;28;20230;-72
2021/01/13 12:18:29;;;;;;;23.80;21.95;;;5.30;1.00;;;;;;4997577;28;20223;-72
2021/01/13 12:20:57;;;;;;;26.00;24.17;;;5.30;1.00;;;;;;4999581;28;20207;-73
2021/01/13 12:23:35;;;;;;;27.33;25.77;;;5.20;1.00;;;;;;5014727;28;20212;-71
2021/01/13 12:26:30;;;;;;;33.58;30.80;;;5.20;1.00;;;;;;5015127;28;20641;-76
2021/01/13 12:29:02;;;;;;;25.80;24.40;;;5.20;1.00;;;;;;5014297;28;20207;-74
2021/01/13 12:31:34;;;;;;;27.05;25.83;;;5.20;1.00;;;;;;5015477;28;20538;-74
2021/01/13 12:34:00;;;;;;;25.38;23.98;;;5.30;1.00;;;;;;5015526;28;20179;-73
2021/01/13 12:36:46;;;;;;;21.37;20.00;;;5.30;1.00;;;;;;5015168;28;20653;-74
2021/01/13 12:39:26;;;;;;;23.63;22.63;;;5.30;1.00;;;;;;5014305;28;20426;-73
2021/01/13 12:41:54;;;;;;;28.10;26.00;;;5.30;1.00;;;;;;5015454;28;20186;-73
2021/01/13 12:44:21;;;;;;;25.92;24.38;;;5.40;1.00;;;;;;5014852;28;20171;-74
2021/01/13 12:46:58;;;;;;;29.25;26.65;;;5.40;1.00;;;;;;5015043;28;20329;-73
2021/01/13 12:49:24;;;;;;;24.60;23.40;;;5.40;1.00;;;;;;5013427;28;20676;-73
2021/01/13 12:51:51;;;;;;;22.50;21.35;;;5.40;1.00;;;;;;5015299;28;20213;-73
2021/01/13 12:54:17;;;;;;;22.98;21.55;;;5.40;1.00;;;;;;5015130;28;20163;-72
2021/01/13 12:56:42;;;;;;;24.53;23.23;;;5.40;1.00;;;;;;5015164;28;20181;-73
2021/01/13 12:59:08;;;;;;;24.27;22.53;;;5.40;1.00;;;;;;5013698;28;20191;-72
2021/01/13 13:01:45;;;;;;;18.77;17.80;;;5.40;1.00;;;;;;5015011;28;20171;-73
2021/01/13 13:04:11;;;;;;;17.13;15.60;;;5.40;1.00;;;;;;5015048;28;20151;-73
2021/01/13 13:06:38;;;;;;;17.30;16.42;;;5.30;1.00;;;;;;5013793;28;20179;-74
2021/01/13 13:09:09;;;;;;;18.70;17.73;;;5.30;1.00;;;;;;5014804;28;20277;-73
2021/01/13 13:11:36;;;;;;;20.77;19.70;;;5.40;1.00;;;;;;5013644;28;20179;-73
2021/01/13 13:14:03;;;;;;;23.10;21.92;;;5.40;1.00;;;;;;5014778;28;20509;-73
2021/01/13 13:16:29;;;;;;;23.30;22.02;;;5.40;1.00;;;;;;5014746;28;20172;-74
2021/01/13 13:18:56;;;;;;;17.17;15.97;;;5.40;1.00;;;;;;5013207;28;20600;-74